Prevelis — SYDL — position and weather

sailwx.info

Track history (hours):
 
Tides and Currents Weather Stations Pressure Air Temp Water Temp Dewpoint Dewpoint Depression Visibility Wind Speed Wind Dir Waves Ship Positions

Prevelis

Last reported at 2017-Apr-21 16:22 UTC. Time now 2017-Apr-23 11:55 UTC.
Position N 37°39' E 023°43'.

Length 143 m; draft 5.5 m.

Type: Passenger vessel. MMSI: 239297000.

Date/timePositionNaut miles runAvg speedWind from/ knotsBaromVisibWave heightAir tempDewpointWater temp
2017-Apr-21 16:22N 37°39' E 023°43'616.5
2017-Apr-21 16:00N 37°44' E 023°39'816.1
2017-Apr-21 15:30N 37°52' E 023°37'510.7
2017-Apr-21 15:00N 37°57' E 023°38'0 0.0
2017-Apr-21 14:31N 37°57' E 023°38'0 0.0
2017-Apr-21 13:30N 37°57' E 023°38'0 0.0
2017-Apr-21 13:00N 37°57' E 023°38'0 0.0
2017-Apr-21 12:30N 37°57' E 023°38'0 0.0
2017-Apr-21 12:01N 37°57' E 023°38'0 0.0
2017-Apr-21 11:30N 37°57' E 023°38'0 0.0
2017-Apr-21 11:01N 37°57' E 023°38'0 0.0
2017-Apr-21 10:31N 37°57' E 023°38'0 0.0
2017-Apr-21 10:00N 37°57' E 023°38'0 0.0
2017-Apr-21 09:30N 37°57' E 023°38'0 0.0
2017-Apr-21 09:00N 37°57' E 023°38'0 0.0
2017-Apr-21 08:30N 37°57' E 023°38'0 0.0
2017-Apr-21 08:00N 37°57' E 023°38'0 0.0
2017-Apr-21 07:30N 37°57' E 023°38'0 0.0
2017-Apr-21 07:01N 37°57' E 023°38'0 0.0
2017-Apr-21 06:31N 37°57' E 023°38'0 0.0
2017-Apr-21 06:00N 37°57' E 023°38'0 0.0
2017-Apr-21 05:30N 37°57' E 023°38'3 5.5
2017-Apr-21 05:01N 37°54' E 023°37'816.7
2017-Apr-21 04:30N 37°47' E 023°42'917.1
2017-Apr-21 04:00N 37°39' E 023°46'  
2017-Apr-18 19:43N 37°27' E 023°51'316.1
2017-Apr-18 19:30N 37°30' E 023°49'916.4
2017-Apr-18 18:58N 37°38' E 023°44'816.4
2017-Apr-18 18:31N 37°45' E 023°39'815.6
2017-Apr-18 18:00N 37°52' E 023°37'5 9.7
2017-Apr-18 17:30N 37°57' E 023°38'0 0.0
2017-Apr-18 17:01N 37°57' E 023°38'0 0.0
2017-Apr-18 16:30N 37°57' E 023°38'0 0.0
2017-Apr-18 16:01N 37°57' E 023°38'0 0.0
2017-Apr-18 15:31N 37°57' E 023°38'0 0.0
2017-Apr-18 15:01N 37°57' E 023°38'0 0.0
2017-Apr-18 14:30N 37°57' E 023°38'0 0.0
2017-Apr-18 13:30N 37°57' E 023°38'0 0.0
2017-Apr-18 13:01N 37°57' E 023°38'0 0.0
2017-Apr-18 12:30N 37°57' E 023°38'0 0.0
2017-Apr-18 12:01N 37°57' E 023°38'0 0.0
2017-Apr-18 11:31N 37°57' E 023°38'0 0.0
2017-Apr-18 11:00N 37°57' E 023°38'0 0.0
2017-Apr-18 10:31N 37°57' E 023°38'0 0.0
2017-Apr-18 10:01N 37°57' E 023°38'0 0.0
2017-Apr-18 09:30N 37°57' E 023°38'0 0.0
2017-Apr-18 09:01N 37°57' E 023°38'0 0.0
2017-Apr-18 08:30N 37°57' E 023°38'0 0.0
2017-Apr-18 08:00N 37°57' E 023°38'0 0.0
2017-Apr-18 07:30N 37°57' E 023°38'0 0.0
2017-Apr-18 07:00N 37°57' E 023°38'0 0.0
2017-Apr-18 06:30N 37°57' E 023°38'0 0.0
2017-Apr-18 06:01N 37°57' E 023°38'0 0.0
2017-Apr-18 05:31N 37°57' E 023°38'0 0.0
2017-Apr-18 05:00N 37°57' E 023°38'0 0.0
2017-Apr-18 04:30N 37°57' E 023°38'0 0.3
2017-Apr-18 04:01N 37°57' E 023°38'2 3.5
2017-Apr-18 03:31N 37°56' E 023°36'612.3
2017-Apr-18 03:00N 37°50' E 023°40'816.5
2017-Apr-18 02:30N 37°43' E 023°43'916.9
2017-Apr-18 01:59N 37°35' E 023°48'  
2017-Apr-13 15:27N 37°37' E 023°45'716.6
2017-Apr-13 15:00N 37°43' E 023°41'816.6
2017-Apr-13 14:30N 37°51' E 023°37'6 5.8
2017-Apr-13 13:31N 37°57' E 023°38'0 0.0
2017-Apr-13 13:00N 37°57' E 023°38'0 0.0
2017-Apr-13 12:30N 37°57' E 023°38'0 0.0
2017-Apr-13 12:01N 37°57' E 023°38'0 0.0
2017-Apr-13 11:31N 37°57' E 023°38'0 0.0
2017-Apr-13 11:00N 37°57' E 023°38'0 0.0
2017-Apr-13 10:30N 37°57' E 023°38'0 0.0
2017-Apr-13 10:00N 37°57' E 023°38'0 0.0
2017-Apr-13 09:31N 37°57' E 023°38'0 0.0
2017-Apr-13 09:00N 37°57' E 023°38'0 0.0
2017-Apr-13 08:30N 37°57' E 023°38'0 0.0
2017-Apr-13 08:00N 37°57' E 023°38'0 0.0
2017-Apr-13 07:30N 37°57' E 023°38'0 0.0
2017-Apr-13 06:59N 37°57' E 023°38'0 0.0
2017-Apr-13 06:30N 37°57' E 023°38'0 0.0
2017-Apr-13 06:00N 37°57' E 023°38'0 0.0
2017-Apr-13 05:30N 37°57' E 023°38'0 0.0
2017-Apr-13 05:00N 37°57' E 023°38'2 3.6
2017-Apr-13 04:30N 37°56' E 023°37'714.8
2017-Apr-13 04:00N 37°49' E 023°41'917.0
2017-Apr-13 03:30N 37°41' E 023°45'917.0
2017-Apr-13 02:59N 37°33' E 023°49'  
Track history (hours):
 
Tides and Currents Weather Stations Pressure Air Temp Water Temp Dewpoint Dewpoint Depression Visibility Wind Speed Wind Dir Waves Ship Positions

Prevelis

Last reported at 2017-Apr-21 16:22 UTC. Time now 2017-Apr-23 11:55 UTC.
Position N 37°39' E 023°43'.

Length 143 m; draft 5.5 m.

Type: Passenger vessel. MMSI: 239297000.

Date/timePositionNaut miles runAvg speedWind from/ knotsBaromVisibWave heightAir tempDewpointWater temp
2017-Apr-21 16:22N 37°39' E 023°43'616.5
2017-Apr-21 16:00N 37°44' E 023°39'816.1
2017-Apr-21 15:30N 37°52' E 023°37'510.7
2017-Apr-21 15:00N 37°57' E 023°38'0 0.0
2017-Apr-21 14:31N 37°57' E 023°38'0 0.0
2017-Apr-21 13:30N 37°57' E 023°38'0 0.0
2017-Apr-21 13:00N 37°57' E 023°38'0 0.0
2017-Apr-21 12:30N 37°57' E 023°38'0 0.0
2017-Apr-21 12:01N 37°57' E 023°38'0 0.0
2017-Apr-21 11:30N 37°57' E 023°38'0 0.0
2017-Apr-21 11:01N 37°57' E 023°38'0 0.0
2017-Apr-21 10:31N 37°57' E 023°38'0 0.0
2017-Apr-21 10:00N 37°57' E 023°38'0 0.0
2017-Apr-21 09:30N 37°57' E 023°38'0 0.0
2017-Apr-21 09:00N 37°57' E 023°38'0 0.0
2017-Apr-21 08:30N 37°57' E 023°38'0 0.0
2017-Apr-21 08:00N 37°57' E 023°38'0 0.0
2017-Apr-21 07:30N 37°57' E 023°38'0 0.0
2017-Apr-21 07:01N 37°57' E 023°38'0 0.0
2017-Apr-21 06:31N 37°57' E 023°38'0 0.0
2017-Apr-21 06:00N 37°57' E 023°38'0 0.0
2017-Apr-21 05:30N 37°57' E 023°38'3 5.5
2017-Apr-21 05:01N 37°54' E 023°37'816.7
2017-Apr-21 04:30N 37°47' E 023°42'917.1
2017-Apr-21 04:00N 37°39' E 023°46'  
2017-Apr-18 19:43N 37°27' E 023°51'316.1
2017-Apr-18 19:30N 37°30' E 023°49'916.4
2017-Apr-18 18:58N 37°38' E 023°44'816.4
2017-Apr-18 18:31N 37°45' E 023°39'815.6
2017-Apr-18 18:00N 37°52' E 023°37'5 9.7
2017-Apr-18 17:30N 37°57' E 023°38'0 0.0
2017-Apr-18 17:01N 37°57' E 023°38'0 0.0
2017-Apr-18 16:30N 37°57' E 023°38'0 0.0
2017-Apr-18 16:01N 37°57' E 023°38'0 0.0
2017-Apr-18 15:31N 37°57' E 023°38'0 0.0
2017-Apr-18 15:01N 37°57' E 023°38'0 0.0
2017-Apr-18 14:30N 37°57' E 023°38'0 0.0
2017-Apr-18 13:30N 37°57' E 023°38'0 0.0
2017-Apr-18 13:01N 37°57' E 023°38'0 0.0
2017-Apr-18 12:30N 37°57' E 023°38'0 0.0
2017-Apr-18 12:01N 37°57' E 023°38'0 0.0
2017-Apr-18 11:31N 37°57' E 023°38'0 0.0
2017-Apr-18 11:00N 37°57' E 023°38'0 0.0
2017-Apr-18 10:31N 37°57' E 023°38'0 0.0
2017-Apr-18 10:01N 37°57' E 023°38'0 0.0
2017-Apr-18 09:30N 37°57' E 023°38'0 0.0
2017-Apr-18 09:01N 37°57' E 023°38'0 0.0
2017-Apr-18 08:30N 37°57' E 023°38'0 0.0
2017-Apr-18 08:00N 37°57' E 023°38'0 0.0
2017-Apr-18 07:30N 37°57' E 023°38'0 0.0
2017-Apr-18 07:00N 37°57' E 023°38'0 0.0
2017-Apr-18 06:30N 37°57' E 023°38'0 0.0
2017-Apr-18 06:01N 37°57' E 023°38'0 0.0
2017-Apr-18 05:31N 37°57' E 023°38'0 0.0
2017-Apr-18 05:00N 37°57' E 023°38'0 0.0
2017-Apr-18 04:30N 37°57' E 023°38'0 0.3
2017-Apr-18 04:01N 37°57' E 023°38'2 3.5
2017-Apr-18 03:31N 37°56' E 023°36'612.3
2017-Apr-18 03:00N 37°50' E 023°40'816.5
2017-Apr-18 02:30N 37°43' E 023°43'916.9
2017-Apr-18 01:59N 37°35' E 023°48'  
2017-Apr-13 15:27N 37°37' E 023°45'716.6
2017-Apr-13 15:00N 37°43' E 023°41'816.6
2017-Apr-13 14:30N 37°51' E 023°37'6 5.8
2017-Apr-13 13:31N 37°57' E 023°38'0 0.0
2017-Apr-13 13:00N 37°57' E 023°38'0 0.0
2017-Apr-13 12:30N 37°57' E 023°38'0 0.0
2017-Apr-13 12:01N 37°57' E 023°38'0 0.0
2017-Apr-13 11:31N 37°57' E 023°38'0 0.0
2017-Apr-13 11:00N 37°57' E 023°38'0 0.0
2017-Apr-13 10:30N 37°57' E 023°38'0 0.0
2017-Apr-13 10:00N 37°57' E 023°38'0 0.0
2017-Apr-13 09:31N 37°57' E 023°38'0 0.0
2017-Apr-13 09:00N 37°57' E 023°38'0 0.0
2017-Apr-13 08:30N 37°57' E 023°38'0 0.0
2017-Apr-13 08:00N 37°57' E 023°38'0 0.0
2017-Apr-13 07:30N 37°57' E 023°38'0 0.0
2017-Apr-13 06:59N 37°57' E 023°38'0 0.0
2017-Apr-13 06:30N 37°57' E 023°38'0 0.0
2017-Apr-13 06:00N 37°57' E 023°38'0 0.0
2017-Apr-13 05:30N 37°57' E 023°38'0 0.0
2017-Apr-13 05:00N 37°57' E 023°38'2 3.6
2017-Apr-13 04:30N 37°56' E 023°37'714.8
2017-Apr-13 04:00N 37°49' E 023°41'917.0
2017-Apr-13 03:30N 37°41' E 023°45'917.0
2017-Apr-13 02:59N 37°33' E 023°49'  

Dump ship's entire track history